Bakerville, South Dakota
Current Conditions -  °F | °C
As of 10:53 AM on Wednesday 26 Nov 2014 (Local Time) from KCUT Reporting Station
Overcast Overcast  
Wind Chill: 26°   Ceiling: 10000
Heat Index: 26°   Visibility: 10mi
Dew Point: 16°   Wind: 3mph
Humidity: 66%   Direction: 240°WSW
Pressure: 30.12"   Gusts: NA
Location:  43.6653°N, 103.766°W
Report Text: KCUT 261753Z AUTO 24003KT 10SM OVC100 M03/M09 A3012 RMK AO2 SLP242 T10331089 11033 21072 50005
Loading
Personal Weather Stations






























Interactive Weather Map New forecast layout! Learn more

10-Day Weather Forecast

Advertisements
Track Severe Weather on mobile